createdAt,value
2023-01-13T00:00:58.342Z,91064.72
2023-01-13T00:02:20.217Z,91072.28
2023-01-13T00:03:42.137Z,91068.19
2023-01-13T00:05:03.933Z,91070.72
2023-01-13T00:06:26.529Z,91067.25
2023-01-13T00:07:49.582Z,91075.78
2023-01-13T00:09:11.160Z,91075.59
2023-01-13T00:10:34.662Z,91076.41
2023-01-13T00:11:56.651Z,91076.41
2023-01-13T00:13:26.511Z,91080.66
2023-01-13T00:14:48.426Z,91080.66
2023-01-13T00:16:15.739Z,91075.59
2023-01-13T00:17:38.893Z,91083.19
2023-01-13T00:19:00.897Z,91080.66
2023-01-13T00:20:22.804Z,91077.34
2023-01-13T00:21:44.693Z,91080.66
2023-01-13T00:23:06.613Z,91065.50
2023-01-13T00:24:28.539Z,91080.66
2023-01-13T00:25:50.192Z,91072.28
2023-01-13T00:27:12.140Z,91077.19
2023-01-13T00:28:34.054Z,91071.34
2023-01-13T00:29:55.744Z,91074.81
2023-01-13T00:31:20.476Z,91079.09
2023-01-13T00:32:42.136Z,91082.41
2023-01-13T00:34:04.432Z,91084.16
2023-01-13T00:35:26.202Z,91085.72
2023-01-13T00:36:48.037Z,91083.97
2023-01-13T00:38:10.012Z,91088.06
2023-01-13T00:39:31.849Z,91085.56
2023-01-13T00:41:01.922Z,91081.44
2023-01-13T00:42:42.107Z,91081.44
2023-01-13T00:44:03.896Z,91078.13
2023-01-13T00:45:25.944Z,91090.00
2023-01-13T00:46:47.879Z,91086.50
2023-01-13T00:48:09.983Z,91087.28
2023-01-13T00:49:31.492Z,91091.56
2023-01-13T00:51:04.842Z,91086.50
2023-01-13T00:52:27.185Z,91082.22
2023-01-13T00:53:51.103Z,91079.72
2023-01-13T00:55:12.743Z,91083.19
2023-01-13T00:56:40.178Z,91083.03
2023-01-13T00:58:05.265Z,91079.88
2023-01-13T00:59:26.816Z,91078.31
2023-01-13T01:00:48.710Z,91085.72
2023-01-13T01:02:11.795Z,91086.69
2023-01-13T01:03:33.712Z,91085.91
2023-01-13T01:04:55.447Z,91081.81
2023-01-13T01:06:20.935Z,91081.81
2023-01-13T01:07:42.774Z,91079.28
2023-01-13T01:09:05.811Z,91080.84
2023-01-13T01:10:27.944Z,91074.38
2023-01-13T01:11:49.369Z,91075.16
2023-01-13T01:13:14.763Z,91084.31
2023-01-13T01:14:36.749Z,91071.69
2023-01-13T01:15:58.838Z,91066.63
2023-01-13T01:17:20.437Z,91063.50
2023-01-13T01:18:45.056Z,91066.97
2023-01-13T01:20:07.172Z,91071.25
2023-01-13T01:21:29.748Z,91073.59
2023-01-13T01:22:51.340Z,91070.63
2023-01-13T01:24:13.252Z,91072.03
2023-01-13T01:25:35.281Z,91081.19
2023-01-13T01:26:57.185Z,91070.47
2023-01-13T01:28:20.661Z,91072.03
2023-01-13T01:29:42.327Z,91078.66
2023-01-13T01:31:09.755Z,91071.06
2023-01-13T01:32:33.499Z,91073.78
2023-01-13T01:33:55.991Z,91068.72
2023-01-13T01:35:17.680Z,91076.13
2023-01-13T01:36:40.356Z,91066.97
2023-01-13T01:38:02.251Z,91066.19
2023-01-13T01:39:23.837Z,91063.66
2023-01-13T01:40:45.667Z,91068.72
2023-01-13T01:42:32.073Z,91063.66
2023-01-13T01:44:07.337Z,91067.94
2023-01-13T01:45:31.340Z,91061.31
2023-01-13T01:46:53.299Z,91061.13
2023-01-13T01:48:15.191Z,91063.97
2023-01-13T01:49:42.447Z,91062.22
2023-01-13T01:51:07.762Z,91071.41
2023-01-13T01:52:44.390Z,91062.22
2023-01-13T01:54:09.471Z,91059.72
2023-01-13T01:55:36.925Z,91065.56
2023-01-13T01:56:59.403Z,91063.03
2023-01-13T01:58:38.356Z,91059.72
2023-01-13T02:00:01.285Z,91063.97
2023-01-13T02:01:34.566Z,91061.44
2023-01-13T02:02:57.416Z,91058.91
2023-01-13T02:04:25.134Z,91063.19
2023-01-13T02:05:46.779Z,91064.75
2023-01-13T02:07:09.212Z,91064.94
2023-01-13T02:08:31.076Z,91063.97
2023-01-13T02:09:55.460Z,91055.59
2023-01-13T02:11:55.241Z,91060.66
2023-01-13T02:13:17.454Z,91054.03
2023-01-13T02:14:41.142Z,91060.66
2023-01-13T02:16:22.226Z,91055.59
2023-01-13T02:17:55.344Z,91044.72
2023-01-13T02:19:36.935Z,91050.56
2023-01-13T02:21:13.927Z,91059.09
2023-01-13T02:23:32.275Z,91052.28
2023-01-13T02:25:12.350Z,91048.19
2023-01-13T02:26:52.634Z,91043.94
2023-01-13T02:29:17.513Z,91053.44
2023-01-13T02:31:14.801Z,91047.59
2023-01-13T02:32:58.574Z,91048.53
2023-01-13T02:34:25.433Z,91051.25
2023-01-13T02:35:56.853Z,91051.25
2023-01-13T02:37:33.339Z,91053.00
2023-01-13T02:39:12.167Z,91048.09
2023-01-13T02:40:37.939Z,91047.31
2023-01-13T02:42:43.765Z,91051.59
2023-01-13T02:44:07.754Z,91049.06
2023-01-13T02:45:52.054Z,91053.16
2023-01-13T02:47:24.556Z,91047.31
2023-01-13T02:48:48.852Z,91051.59
2023-01-13T02:50:17.509Z,91051.59
2023-01-13T02:51:44.363Z,91048.28
2023-01-13T02:53:22.357Z,91050.63
2023-01-13T02:54:49.119Z,91050.63
2023-01-13T02:56:14.409Z,91052.56
2023-01-13T02:57:38.028Z,91054.28
2023-01-13T02:59:00.701Z,91056.81
2023-01-13T03:00:23.804Z,91053.34
2023-01-13T03:01:47.734Z,91058.22
2023-01-13T03:03:09.319Z,91055.09
2023-01-13T03:04:53.244Z,91048.28
2023-01-13T03:06:23.696Z,91054.13
2023-01-13T03:08:18.442Z,91054.13
2023-01-13T03:09:53.502Z,91056.66
2023-01-13T03:11:19.109Z,91057.59
2023-01-13T03:13:11.404Z,91051.59
2023-01-13T03:14:44.020Z,91060.91
2023-01-13T03:16:40.791Z,91054.91
2023-01-13T03:18:12.695Z,91061.53
2023-01-13T03:19:46.744Z,91054.72
2023-01-13T03:21:36.517Z,91068.16
2023-01-13T03:23:13.205Z,91060.56
2023-01-13T03:25:00.565Z,91062.31
2023-01-13T03:26:38.511Z,91060.56
2023-01-13T03:28:05.913Z,91065.63
2023-01-13T03:29:35.986Z,91059.78
2023-01-13T03:31:01.733Z,91074.78
2023-01-13T03:32:25.448Z,91074.00
2023-01-13T03:34:04.932Z,91075.75
2023-01-13T03:35:30.798Z,91070.69
2023-01-13T03:36:55.632Z,91079.06
2023-01-13T03:38:32.290Z,91079.06
2023-01-13T03:40:01.118Z,91082.38
2023-01-13T03:41:59.997Z,91079.06
2023-01-13T03:43:47.765Z,91083.16
2023-01-13T03:45:18.251Z,91082.19
2023-01-13T03:46:53.095Z,91083.16
2023-01-13T03:48:19.857Z,91083.78
2023-01-13T03:50:08.161Z,91089.78
2023-01-13T03:51:33.044Z,91091.53
2023-01-13T03:53:24.124Z,91084.91
2023-01-13T03:54:51.674Z,91081.59
2023-01-13T03:56:24.092Z,91091.69
2023-01-13T03:58:06.904Z,91082.72
2023-01-13T03:59:35.763Z,91087.59
2023-01-13T04:01:19.156Z,91080.97
2023-01-13T04:02:56.753Z,91085.06
2023-01-13T04:04:34.897Z,91080.97
2023-01-13T04:06:09.010Z,91090.13
2023-01-13T04:07:55.813Z,91095.19
2023-01-13T04:09:50.983Z,91091.69
2023-01-13T04:11:22.588Z,91091.69
2023-01-13T04:13:07.826Z,91099.28
2023-01-13T04:14:30.601Z,91096.75
2023-01-13T04:15:52.695Z,91096.75
2023-01-13T04:17:15.645Z,91091.69
2023-01-13T04:18:39.377Z,91099.28
2023-01-13T04:20:01.387Z,91101.03
2023-01-13T04:21:23.311Z,91105.28
2023-01-13T04:22:45.403Z,91099.47
2023-01-13T04:24:08.349Z,91105.28
2023-01-13T04:25:30.346Z,91107.81
2023-01-13T04:26:52.481Z,91105.28
2023-01-13T04:28:14.679Z,91103.56
2023-01-13T04:29:36.444Z,91103.38
2023-01-13T04:30:58.497Z,91102.59
2023-01-13T04:32:20.400Z,91110.97
2023-01-13T04:33:42.486Z,91105.91
2023-01-13T04:35:04.465Z,91099.28
2023-01-13T04:36:27.766Z,91105.91
2023-01-13T04:37:49.474Z,91110.97
2023-01-13T04:39:11.296Z,91110.97
2023-01-13T04:40:33.244Z,91110.00
2023-01-13T04:41:57.973Z,91115.06
2023-01-13T04:43:19.601Z,91115.06
2023-01-13T04:44:41.312Z,91114.09
2023-01-13T04:46:02.824Z,91115.69
2023-01-13T04:47:25.033Z,91113.94
2023-01-13T04:48:46.870Z,91113.94
2023-01-13T04:50:10.157Z,91112.19
2023-01-13T04:51:31.869Z,91114.72
2023-01-13T04:52:54.513Z,91119.59
2023-01-13T04:54:16.339Z,91117.06
2023-01-13T04:55:37.928Z,91121.34
2023-01-13T04:56:59.798Z,91117.06
2023-01-13T04:58:22.523Z,91121.22
2023-01-13T04:59:44.132Z,91117.88
2023-01-13T05:01:06.100Z,91123.72
2023-01-13T05:02:28.093Z,91120.41
2023-01-13T05:03:50.185Z,91120.41
2023-01-13T05:05:12.204Z,91122.00
2023-01-13T05:06:34.327Z,91127.84
2023-01-13T05:07:57.509Z,91125.31
2023-01-13T05:09:19.224Z,91123.56
2023-01-13T05:10:40.933Z,91124.34
2023-01-13T05:12:20.889Z,91121.81
2023-01-13T05:14:01.072Z,91125.91
2023-01-13T05:15:41.633Z,91127.66
2023-01-13T05:17:03.739Z,91128.44
2023-01-13T05:18:26.076Z,91126.72
2023-01-13T05:19:48.070Z,91128.28
2023-01-13T05:21:30.141Z,91130.81
2023-01-13T05:23:10.424Z,91127.50
2023-01-13T05:24:50.660Z,91130.81
2023-01-13T05:26:12.642Z,91130.03
2023-01-13T05:27:34.899Z,91133.50
2023-01-13T05:28:56.396Z,91131.75
2023-01-13T05:30:20.280Z,91131.59
2023-01-13T05:31:42.280Z,91135.69
2023-01-13T05:33:05.093Z,91138.22
2023-01-13T05:34:27.062Z,91133.16
2023-01-13T05:35:49.746Z,91136.47
2023-01-13T05:37:13.236Z,91133.78
2023-01-13T05:38:34.940Z,91133.00
2023-01-13T05:40:15.509Z,91134.72
2023-01-13T05:41:55.821Z,91134.72
2023-01-13T05:43:19.883Z,91135.50
2023-01-13T05:44:41.554Z,91135.50
2023-01-13T05:46:06.978Z,91133.00
2023-01-13T05:47:28.700Z,91140.56
2023-01-13T05:48:50.781Z,91137.09
2023-01-13T05:50:12.709Z,91137.09
2023-01-13T05:51:34.567Z,91136.13
2023-01-13T05:52:56.409Z,91133.59
2023-01-13T05:54:17.898Z,91133.59
2023-01-13T05:55:41.707Z,91139.78
2023-01-13T05:57:03.568Z,91138.03
2023-01-13T05:58:27.321Z,91138.03
2023-01-13T05:59:49.131Z,91138.84
2023-01-13T06:01:10.932Z,91138.66
2023-01-13T06:02:32.620Z,91134.38
2023-01-13T06:03:54.650Z,91140.22
2023-01-13T06:05:16.655Z,91133.44
2023-01-13T06:06:38.718Z,91139.09
2023-01-13T06:08:01.806Z,91143.06
2023-01-13T06:09:23.855Z,91148.13
2023-01-13T06:10:45.674Z,91146.38
2023-01-13T06:12:07.510Z,91145.41
2023-01-13T06:13:29.390Z,91153.78
2023-01-13T06:14:51.385Z,91145.41
2023-01-13T06:16:13.316Z,91146.19
2023-01-13T06:17:37.389Z,91152.81
2023-01-13T06:18:59.009Z,91157.88
2023-01-13T06:20:21.029Z,91149.50
2023-01-13T06:21:46.055Z,91148.56
2023-01-13T06:23:10.984Z,91152.66
2023-01-13T06:24:32.984Z,91153.44
2023-01-13T06:26:14.796Z,91150.56
2023-01-13T06:27:36.480Z,91155.63
2023-01-13T06:28:58.401Z,91159.72
2023-01-13T06:30:20.445Z,91155.63
2023-01-13T06:31:42.126Z,91155.44
2023-01-13T06:33:06.797Z,91154.50
2023-01-13T06:34:29.315Z,91156.09
2023-01-13T06:35:56.975Z,91156.88
2023-01-13T06:37:23.464Z,91155.75
2023-01-13T06:38:50.623Z,91158.09
2023-01-13T06:40:14.164Z,91164.72
2023-01-13T06:41:54.330Z,91156.00
2023-01-13T06:43:16.920Z,91160.91
2023-01-13T06:44:39.237Z,91160.56
2023-01-13T06:46:02.636Z,91166.88
2023-01-13T06:47:24.436Z,91158.94
2023-01-13T06:48:46.121Z,91162.69
2023-01-13T06:50:08.435Z,91166.28
2023-01-13T06:51:30.041Z,91170.81
2023-01-13T06:52:51.915Z,91162.28
2023-01-13T06:54:13.912Z,91163.50
2023-01-13T06:55:36.006Z,91172.34
2023-01-13T06:56:57.919Z,91167.16
2023-01-13T06:58:19.956Z,91169.59
2023-01-13T06:59:41.772Z,91174.84
2023-01-13T07:01:03.807Z,91167.50
2023-01-13T07:02:26.039Z,91173.34
2023-01-13T07:03:48.260Z,91176.22
2023-01-13T07:05:10.165Z,91175.38
2023-01-13T07:06:31.874Z,91167.09
2023-01-13T07:07:53.729Z,91172.06
2023-01-13T07:09:15.592Z,91170.59
2023-01-13T07:10:38.178Z,91171.81
2023-01-13T07:11:59.918Z,91174.78
2023-01-13T07:13:40.700Z,91168.50
2023-01-13T07:15:20.454Z,91171.75
2023-01-13T07:16:44.509Z,91173.22
2023-01-13T07:18:06.518Z,91173.41
2023-01-13T07:19:28.619Z,91171.22
2023-01-13T07:21:01.516Z,91169.13
2023-01-13T07:22:24.596Z,91171.75
2023-01-13T07:23:46.697Z,91163.63
2023-01-13T07:25:09.239Z,91166.59
2023-01-13T07:26:31.256Z,91167.22
2023-01-13T07:27:52.817Z,91168.00
2023-01-13T07:29:14.316Z,91167.63
2023-01-13T07:30:36.020Z,91172.97
2023-01-13T07:31:57.919Z,91165.78
2023-01-13T07:33:20.306Z,91167.81
2023-01-13T07:34:42.201Z,91166.28
2023-01-13T07:36:05.786Z,91162.47
2023-01-13T07:37:27.792Z,91163.66
2023-01-13T07:38:49.555Z,91162.53
2023-01-13T07:40:12.640Z,91171.50
2023-01-13T07:41:52.944Z,91168.81
2023-01-13T07:43:32.895Z,91175.91
2023-01-13T07:44:54.653Z,91177.09
2023-01-13T07:46:16.303Z,91177.69
2023-01-13T07:47:38.386Z,91175.59
2023-01-13T07:49:00.112Z,91172.72
2023-01-13T07:50:23.759Z,91175.59
2023-01-13T07:51:45.315Z,91180.00
2023-01-13T07:53:07.284Z,91176.91
2023-01-13T07:54:40.270Z,91172.03
2023-01-13T07:56:05.392Z,91174.56
2023-01-13T07:57:27.305Z,91177.47
2023-01-13T07:58:51.125Z,91176.38
2023-01-13T08:00:13.258Z,91171.84
2023-01-13T08:01:35.068Z,91176.47
2023-01-13T08:02:59.789Z,91171.06
2023-01-13T08:04:22.195Z,91169.66
2023-01-13T08:05:43.786Z,91170.66
2023-01-13T08:07:06.583Z,91176.41
2023-01-13T08:08:28.132Z,91164.00
2023-01-13T08:09:50.594Z,91177.09
2023-01-13T08:11:12.553Z,91174.63
2023-01-13T08:12:54.546Z,91164.44
2023-01-13T08:14:18.790Z,91173.03
2023-01-13T08:15:40.761Z,91165.81
2023-01-13T08:17:02.642Z,91167.13
2023-01-13T08:18:24.644Z,91161.75
2023-01-13T08:19:46.193Z,91173.81
2023-01-13T08:21:13.290Z,91171.56
2023-01-13T08:22:34.870Z,91168.63
2023-01-13T08:23:56.642Z,91167.13
2023-01-13T08:25:18.692Z,91157.19
2023-01-13T08:26:40.389Z,91164.41
2023-01-13T08:28:02.200Z,91167.47
2023-01-13T08:29:23.837Z,91167.19
2023-01-13T08:30:45.942Z,91165.78
2023-01-13T08:32:07.784Z,91168.75
2023-01-13T08:33:30.137Z,91165.75
2023-01-13T08:34:51.832Z,91167.41
2023-01-13T08:36:14.065Z,91162.16
2023-01-13T08:37:36.375Z,91161.91
2023-01-13T08:38:57.993Z,91158.03
2023-01-13T08:40:21.711Z,91169.72
2023-01-13T08:41:56.329Z,91163.63
2023-01-13T08:43:18.135Z,91164.72
2023-01-13T08:44:40.110Z,91164.78
2023-01-13T08:46:04.706Z,91160.22
2023-01-13T08:47:28.525Z,91162.09
2023-01-13T08:48:50.284Z,91161.16
2023-01-13T08:50:12.609Z,91164.28
2023-01-13T08:51:34.959Z,91165.28
2023-01-13T08:52:57.285Z,91155.88
2023-01-13T08:54:19.853Z,91157.81
2023-01-13T08:55:41.731Z,91158.94
2023-01-13T08:57:03.635Z,91153.00
2023-01-13T08:58:25.412Z,91149.91
2023-01-13T08:59:48.064Z,91153.22
2023-01-13T09:01:18.368Z,91147.50
2023-01-13T09:02:40.470Z,91148.84
2023-01-13T09:04:02.108Z,91146.50
2023-01-13T09:05:24.349Z,91150.34
2023-01-13T09:06:46.620Z,91147.13
2023-01-13T09:08:08.500Z,91147.78
2023-01-13T09:09:30.448Z,91139.06
2023-01-13T09:10:52.274Z,91142.09
2023-01-13T09:12:34.106Z,91136.56
2023-01-13T09:13:55.752Z,91138.63
2023-01-13T09:15:18.622Z,91142.97
2023-01-13T09:16:40.689Z,91134.09
2023-01-13T09:18:02.754Z,91125.91
2023-01-13T09:19:24.728Z,91130.63
2023-01-13T09:20:46.460Z,91127.56
2023-01-13T09:22:13.882Z,91132.47
2023-01-13T09:23:35.830Z,91128.38
2023-01-13T09:24:57.997Z,91124.44
2023-01-13T09:26:21.745Z,91122.41
2023-01-13T09:27:43.806Z,91122.25
2023-01-13T09:29:06.347Z,91125.22
2023-01-13T09:30:28.202Z,91121.81
2023-01-13T09:31:50.255Z,91117.81
2023-01-13T09:33:30.474Z,91117.19
2023-01-13T09:35:01.333Z,91118.00
2023-01-13T09:36:23.384Z,91122.84
2023-01-13T09:37:45.310Z,91116.75
2023-01-13T09:39:07.375Z,91115.81
2023-01-13T09:40:29.101Z,91118.06
2023-01-13T09:42:12.172Z,91119.50
2023-01-13T09:43:55.872Z,91110.06
2023-01-13T09:45:25.915Z,91112.03
2023-01-13T09:46:53.080Z,91110.22
2023-01-13T09:48:29.893Z,91113.09
2023-01-13T09:49:52.109Z,91110.34
2023-01-13T09:51:24.536Z,91107.56
2023-01-13T09:52:46.696Z,91104.75
2023-01-13T09:54:22.811Z,91106.16
2023-01-13T09:55:45.651Z,91101.63
2023-01-13T09:57:15.331Z,91097.19
2023-01-13T09:58:37.365Z,91102.41
2023-01-13T09:59:59.910Z,91103.47
2023-01-13T10:01:54.218Z,91097.88
2023-01-13T10:03:22.163Z,91090.28
2023-01-13T10:04:43.837Z,91095.06
2023-01-13T10:06:06.907Z,91083.59
2023-01-13T10:07:33.247Z,91091.50
2023-01-13T10:08:56.048Z,91091.31
2023-01-13T10:10:44.020Z,91088.56
2023-01-13T10:12:33.484Z,91091.19
2023-01-13T10:14:24.122Z,91086.38
2023-01-13T10:16:10.486Z,91089.34
2023-01-13T10:17:45.895Z,91083.69
2023-01-13T10:19:13.167Z,91081.31
2023-01-13T10:20:52.682Z,91082.09
2023-01-13T10:22:18.113Z,91076.66
2023-01-13T10:23:50.063Z,91075.31
2023-01-13T10:25:30.418Z,91075.50
2023-01-13T10:27:12.720Z,91081.38
2023-01-13T10:28:34.627Z,91073.56
2023-01-13T10:29:56.554Z,91069.81
2023-01-13T10:31:19.664Z,91071.59
2023-01-13T10:32:47.541Z,91073.13
2023-01-13T10:34:09.231Z,91064.53
2023-01-13T10:35:55.283Z,91066.88
2023-01-13T10:37:35.551Z,91061.59
2023-01-13T10:39:09.341Z,91065.13
2023-01-13T10:40:31.247Z,91059.81
2023-01-13T10:42:04.661Z,91060.22
2023-01-13T10:43:27.853Z,91057.66
2023-01-13T10:44:52.096Z,91059.59
2023-01-13T10:46:16.499Z,91049.41
2023-01-13T10:47:38.108Z,91054.34
2023-01-13T10:49:02.123Z,91058.25
2023-01-13T10:50:29.801Z,91041.63
2023-01-13T10:51:51.489Z,91042.78
2023-01-13T10:53:24.668Z,91043.97
2023-01-13T10:54:52.926Z,91041.03
2023-01-13T10:56:19.870Z,91040.44
2023-01-13T10:57:41.955Z,91031.44
2023-01-13T10:59:15.910Z,91033.97
2023-01-13T11:00:37.696Z,91029.69
2023-01-13T11:02:13.054Z,91037.50
2023-01-13T11:03:47.584Z,91039.09
2023-01-13T11:05:21.143Z,91042.19
2023-01-13T11:06:47.401Z,91029.66
2023-01-13T11:08:18.777Z,91034.16
2023-01-13T11:09:41.055Z,91028.31
2023-01-13T11:11:02.873Z,91032.41
2023-01-13T11:12:33.296Z,91029.47
2023-01-13T11:14:20.711Z,91024.56
2023-01-13T11:16:01.745Z,91023.22
2023-01-13T11:17:32.470Z,91022.63
2023-01-13T11:19:14.201Z,91023.19
2023-01-13T11:20:41.238Z,91023.41
2023-01-13T11:22:15.844Z,91023.22
2023-01-13T11:23:47.397Z,91016.53
2023-01-13T11:25:52.522Z,91016.94
2023-01-13T11:27:35.346Z,91017.94
2023-01-13T11:29:18.798Z,91012.78
2023-01-13T11:30:50.791Z,91021.59
2023-01-13T11:32:20.147Z,91011.41
2023-01-13T11:34:18.516Z,91011.59
2023-01-13T11:35:58.631Z,91007.88
2023-01-13T11:37:30.536Z,91012.19
2023-01-13T11:38:52.425Z,91012.19
2023-01-13T11:40:39.758Z,91005.50
2023-01-13T11:42:21.009Z,91009.22
2023-01-13T11:44:18.549Z,91006.31
2023-01-13T11:45:48.068Z,90998.47
2023-01-13T11:47:12.039Z,91005.72
2023-01-13T11:48:41.268Z,91003.75
2023-01-13T11:50:04.214Z,91002.19
2023-01-13T11:51:40.715Z,90993.78
2023-01-13T11:53:24.329Z,90994.19
2023-01-13T11:54:55.249Z,91000.06
2023-01-13T11:56:43.440Z,90992.03
2023-01-13T11:58:23.626Z,90997.50
2023-01-13T12:00:09.737Z,90994.56
2023-01-13T12:01:43.458Z,90984.59
2023-01-13T12:03:33.703Z,90987.34
2023-01-13T12:05:14.026Z,90988.13
2023-01-13T12:06:38.702Z,90989.50
2023-01-13T12:08:18.276Z,90986.94
2023-01-13T12:09:51.172Z,90990.06
2023-01-13T12:11:33.336Z,90984.59
2023-01-13T12:13:35.516Z,90990.09
2023-01-13T12:15:27.009Z,90982.44
2023-01-13T12:16:51.882Z,90992.22
2023-01-13T12:18:43.247Z,90987.69
2023-01-13T12:20:22.578Z,90990.03
2023-01-13T12:22:09.296Z,90991.59
2023-01-13T12:23:34.010Z,90988.47
2023-01-13T12:25:04.783Z,90990.00
2023-01-13T12:26:29.949Z,90994.50
2023-01-13T12:28:03.133Z,90984.94
2023-01-13T12:29:34.374Z,90987.81
2023-01-13T12:31:01.598Z,90998.97
2023-01-13T12:32:38.548Z,90986.47
2023-01-13T12:34:03.097Z,90982.53
2023-01-13T12:35:37.789Z,90986.06
2023-01-13T12:37:27.517Z,90993.09
2023-01-13T12:39:16.372Z,90995.84
2023-01-13T12:40:55.172Z,90994.28
2023-01-13T12:42:56.623Z,90994.28
2023-01-13T12:44:18.405Z,90993.28
2023-01-13T12:45:40.360Z,90994.66
2023-01-13T12:47:02.124Z,90997.00
2023-01-13T12:48:56.674Z,90996.22
2023-01-13T12:50:27.446Z,91002.88
2023-01-13T12:51:51.808Z,91003.66
2023-01-13T12:53:35.331Z,91000.94
2023-01-13T12:54:57.179Z,90995.06
2023-01-13T12:56:26.400Z,90989.59
2023-01-13T12:58:03.341Z,90997.03
2023-01-13T12:59:25.377Z,91004.47
2023-01-13T13:00:49.062Z,91002.72
2023-01-13T13:02:11.296Z,90997.63
2023-01-13T13:03:38.584Z,91008.78
2023-01-13T13:05:16.258Z,91005.25
2023-01-13T13:06:45.159Z,91011.50
2023-01-13T13:08:32.426Z,91013.44
2023-01-13T13:10:02.523Z,91013.44
2023-01-13T13:11:55.143Z,91011.47
2023-01-13T13:13:48.552Z,91015.19
2023-01-13T13:15:20.468Z,91015.59
2023-01-13T13:16:53.007Z,91021.03
2023-01-13T13:18:18.130Z,91012.63
2023-01-13T13:19:43.156Z,91019.47
2023-01-13T13:21:09.492Z,91011.03
2023-01-13T13:22:43.033Z,91019.84
2023-01-13T13:24:10.478Z,91026.28
2023-01-13T13:25:32.277Z,91026.28
2023-01-13T13:26:54.049Z,91017.69
2023-01-13T13:28:19.133Z,91021.97
2023-01-13T13:29:57.633Z,91031.56
2023-01-13T13:31:50.664Z,91030.00
2023-01-13T13:33:30.604Z,91027.81
2023-01-13T13:34:52.131Z,91023.88
2023-01-13T13:36:44.576Z,91031.50
2023-01-13T13:38:36.970Z,91023.50
2023-01-13T13:40:20.575Z,91028.75
2023-01-13T13:42:05.519Z,91027.97
2023-01-13T13:44:01.410Z,91033.25
2023-01-13T13:45:44.252Z,91020.91
2023-01-13T13:47:07.329Z,91024.41
2023-01-13T13:48:31.082Z,91021.09
2023-01-13T13:49:56.941Z,91027.34
2023-01-13T13:51:31.295Z,91024.81
2023-01-13T13:53:01.271Z,91023.44
2023-01-13T13:54:23.643Z,91031.06
2023-01-13T13:56:02.086Z,91030.47
2023-01-13T13:57:30.833Z,91033.97
2023-01-13T13:58:53.493Z,91024.97
2023-01-13T14:00:23.653Z,91031.00
2023-01-13T14:01:50.370Z,91029.63
2023-01-13T14:03:40.171Z,91030.59
2023-01-13T14:05:30.171Z,91032.72
2023-01-13T14:06:57.072Z,91029.59
2023-01-13T14:08:19.059Z,91033.31
2023-01-13T14:09:44.603Z,91041.91
2023-01-13T14:11:30.903Z,91035.06
2023-01-13T14:12:53.203Z,91042.06
2023-01-13T14:14:17.346Z,91040.50
2023-01-13T14:15:39.961Z,91044.78
2023-01-13T14:17:04.242Z,91044.00
2023-01-13T14:18:27.950Z,91051.81
2023-01-13T14:20:05.572Z,91052.97
2023-01-13T14:21:29.885Z,91051.41
2023-01-13T14:22:53.834Z,91050.81
2023-01-13T14:24:17.688Z,91050.81
2023-01-13T14:25:48.244Z,91053.34
2023-01-13T14:27:15.221Z,91051.78
2023-01-13T14:28:39.622Z,91061.16
2023-01-13T14:30:02.165Z,91061.34
2023-01-13T14:31:25.004Z,91063.25
2023-01-13T14:32:47.132Z,91060.91
2023-01-13T14:34:32.357Z,91065.78
2023-01-13T14:36:08.252Z,91068.50
2023-01-13T14:37:33.306Z,91059.53
2023-01-13T14:39:04.076Z,91064.59
2023-01-13T14:40:36.252Z,91067.31
2023-01-13T14:41:57.907Z,91064.78
2023-01-13T14:43:24.633Z,91068.28
2023-01-13T14:44:49.736Z,91072.59
2023-01-13T14:46:11.995Z,91063.41
2023-01-13T14:47:34.157Z,91074.53
2023-01-13T14:49:01.949Z,91070.25
2023-01-13T14:50:31.422Z,91070.44
2023-01-13T14:51:54.092Z,91073.94
2023-01-13T14:53:30.842Z,91073.94
2023-01-13T14:54:53.836Z,91067.25
2023-01-13T14:56:38.514Z,91078.38
2023-01-13T14:58:22.296Z,91074.28
2023-01-13T15:00:04.114Z,91079.34
2023-01-13T15:01:39.539Z,91083.66
2023-01-13T15:03:08.020Z,91083.84
2023-01-13T15:04:38.961Z,91076.22
2023-01-13T15:06:00.699Z,91084.81
2023-01-13T15:07:30.224Z,91087.34
2023-01-13T15:08:52.251Z,91089.09
2023-01-13T15:10:19.655Z,91086.75
2023-01-13T15:11:41.348Z,91093.38
2023-01-13T15:13:06.468Z,91098.84
2023-01-13T15:14:34.859Z,91093.94
2023-01-13T15:16:00.236Z,91090.63
2023-01-13T15:17:21.808Z,91094.13
2023-01-13T15:18:44.115Z,91089.22
2023-01-13T15:20:14.420Z,91093.50
2023-01-13T15:21:35.988Z,91100.34
2023-01-13T15:23:01.373Z,91101.50
2023-01-13T15:24:23.186Z,91098.16
2023-01-13T15:25:46.045Z,91093.28
2023-01-13T15:27:25.495Z,91096.78
2023-01-13T15:28:47.959Z,91095.22
2023-01-13T15:30:17.103Z,91100.66
2023-01-13T15:31:38.920Z,91106.53
2023-01-13T15:33:01.001Z,91107.50
2023-01-13T15:34:22.563Z,91112.75
2023-01-13T15:35:49.679Z,91112.91
2023-01-13T15:37:11.750Z,91114.66
2023-01-13T15:38:33.535Z,91110.56
2023-01-13T15:39:55.495Z,91106.44
2023-01-13T15:41:17.766Z,91112.50
2023-01-13T15:42:57.739Z,91109.94
2023-01-13T15:44:37.767Z,91116.00
2023-01-13T15:46:19.113Z,91111.88
2023-01-13T15:47:41.261Z,91118.13
2023-01-13T15:49:16.707Z,91122.41
2023-01-13T15:50:41.512Z,91125.72
2023-01-13T15:52:05.771Z,91125.91
2023-01-13T15:53:27.417Z,91127.84
2023-01-13T15:54:53.160Z,91127.06
2023-01-13T15:56:26.637Z,91124.34
2023-01-13T15:57:50.796Z,91129.41
2023-01-13T15:59:22.374Z,91123.75
2023-01-13T16:00:44.296Z,91130.38
2023-01-13T16:02:12.860Z,91126.09
2023-01-13T16:03:34.517Z,91129.41
2023-01-13T16:04:57.039Z,91132.91
2023-01-13T16:06:28.058Z,91126.09
2023-01-13T16:07:50.093Z,91125.31
2023-01-13T16:09:14.416Z,91124.53
2023-01-13T16:10:36.565Z,91126.28
2023-01-13T16:11:58.488Z,91129.59
2023-01-13T16:13:20.507Z,91134.66
2023-01-13T16:14:42.603Z,91131.34
2023-01-13T16:16:13.276Z,91127.22
2023-01-13T16:17:36.402Z,91131.50
2023-01-13T16:18:58.400Z,91127.22
2023-01-13T16:20:20.416Z,91131.50
2023-01-13T16:21:42.340Z,91132.28
2023-01-13T16:23:04.593Z,91133.25
2023-01-13T16:24:26.662Z,91134.22
2023-01-13T16:25:48.778Z,91133.44
2023-01-13T16:27:20.620Z,91128.38
2023-01-13T16:28:42.355Z,91132.47
2023-01-13T16:30:04.576Z,91130.91
2023-01-13T16:31:32.362Z,91130.91
2023-01-13T16:32:55.149Z,91131.69
2023-01-13T16:34:18.134Z,91132.66
2023-01-13T16:35:44.004Z,91129.34
2023-01-13T16:37:27.237Z,91133.63
2023-01-13T16:38:51.256Z,91131.88
2023-01-13T16:40:23.678Z,91138.69
2023-01-13T16:41:45.222Z,91132.84
2023-01-13T16:43:07.145Z,91136.16
2023-01-13T16:44:29.289Z,91136.16
2023-01-13T16:45:50.888Z,91141.22
2023-01-13T16:47:17.136Z,91137.91
2023-01-13T16:48:39.150Z,91137.91
2023-01-13T16:50:01.163Z,91138.69
2023-01-13T16:51:24.053Z,91142.78
2023-01-13T16:52:45.721Z,91149.44
2023-01-13T16:54:07.954Z,91143.59
2023-01-13T16:55:30.108Z,91145.34
2023-01-13T16:56:51.712Z,91146.13
2023-01-13T16:58:19.324Z,91149.44
2023-01-13T16:59:41.383Z,91156.09
2023-01-13T17:01:04.887Z,91146.91
2023-01-13T17:02:26.980Z,91146.91
2023-01-13T17:03:49.581Z,91154.31
2023-01-13T17:05:15.022Z,91143.41
2023-01-13T17:06:41.324Z,91151.97
2023-01-13T17:08:02.994Z,91153.53
2023-01-13T17:09:27.503Z,91151.00
2023-01-13T17:10:50.631Z,91158.63
2023-01-13T17:12:12.774Z,91154.31
2023-01-13T17:13:34.561Z,91149.25
2023-01-13T17:14:56.620Z,91155.91
2023-01-13T17:16:21.966Z,91151.00